Time;durP1;ratioP1;P1;durP2;ratioP2;P2;SDS_P1;SDS_P2;PMS_P1;PMS_P2;Temp;Humidity;BMP_temperature;BMP_pressure;BME280_temperature;BME280_humidity;BME280_pressure;Samples;Min_cycle;Max_cycle;Signal;HPM_P1;HPM_P2
2021/10/23 00:01:08;;;;;;;17.00;8.10;;;;;;;;;;5067869;28;20040;-87
2021/10/23 00:03:33;;;;;;;17.88;8.05;;;;;;;;;;5035965;28;20053;-87
2021/10/23 00:05:59;;;;;;;20.58;7.93;;;;;;;;;;5039914;28;20049;-87
2021/10/23 00:08:24;;;;;;;17.20;7.63;;;;;;;;;;5034609;28;20033;-87
2021/10/23 00:10:49;;;;;;;21.75;8.43;;;;;;;;;;5034722;28;20389;-86
2021/10/23 00:13:14;;;;;;;25.88;8.48;;;;;;;;;;5033634;28;20469;-87
2021/10/23 00:15:39;;;;;;;15.38;7.53;;;;;;;;;;5034282;28;20028;-87
2021/10/23 00:18:05;;;;;;;18.70;8.38;;;;;;;;;;5034533;28;20029;-87
2021/10/23 00:20:30;;;;;;;16.67;7.95;;;;;;;;;;5035567;28;20033;-86
2021/10/23 00:22:55;;;;;;;14.70;7.45;;;;;;;;;;5033284;28;20032;-86
2021/10/23 00:25:21;;;;;;;16.90;7.13;;;;;;;;;;5034263;28;20029;-86
2021/10/23 00:27:46;;;;;;;14.55;7.50;;;;;;;;;;5035437;28;20009;-87
2021/10/23 00:30:11;;;;;;;17.42;7.80;;;;;;;;;;5033939;28;20019;-87
2021/10/23 00:32:37;;;;;;;17.67;7.57;;;;;;;;;;5034284;28;20473;-87
2021/10/23 00:35:03;;;;;;;16.80;7.60;;;;;;;;;;5044222;28;20023;-87
2021/10/23 00:37:28;;;;;;;19.20;7.60;;;;;;;;;;5035099;28;20026;-87
2021/10/23 00:39:54;;;;;;;16.17;8.48;;;;;;;;;;5035370;28;20478;-87
2021/10/23 00:42:19;;;;;;;15.20;7.43;;;;;;;;;;5067246;28;20056;-87
2021/10/23 00:44:45;;;;;;;15.30;7.60;;;;;;;;;;5034472;28;20025;-87
2021/10/23 00:47:12;;;;;;;16.50;7.15;;;;;;;;;;5080252;28;20028;-87
2021/10/23 00:49:38;;;;;;;15.10;6.55;;;;;;;;;;5035370;28;20017;-87
2021/10/23 00:52:04;;;;;;;19.02;7.78;;;;;;;;;;5033947;28;20385;-87
2021/10/23 00:54:30;;;;;;;18.40;7.72;;;;;;;;;;5066991;28;20017;-87
2021/10/23 00:56:56;;;;;;;20.13;7.97;;;;;;;;;;5067112;28;20052;-87
2021/10/23 00:59:21;;;;;;;17.23;8.35;;;;;;;;;;5066948;28;20025;-87
2021/10/23 01:01:47;;;;;;;20.70;7.40;;;;;;;;;;5067104;28;20076;-87
2021/10/23 01:04:12;;;;;;;12.13;6.47;;;;;;;;;;5033583;28;20029;-87
2021/10/23 01:06:38;;;;;;;21.27;7.05;;;;;;;;;;5067050;28;20023;-87
2021/10/23 01:09:04;;;;;;;21.58;7.60;;;;;;;;;;5066830;28;20022;-87
2021/10/23 01:11:29;;;;;;;14.35;6.40;;;;;;;;;;5033353;28;20085;-87
2021/10/23 01:13:54;;;;;;;14.57;6.65;;;;;;;;;;5066737;28;20104;-87
2021/10/23 01:16:19;;;;;;;17.48;7.43;;;;;;;;;;5033408;28;20083;-87
2021/10/23 01:18:45;;;;;;;21.27;7.50;;;;;;;;;;5033406;28;20049;-87
2021/10/23 01:21:10;;;;;;;18.42;7.43;;;;;;;;;;5033104;28;20040;-87
2021/10/23 01:23:35;;;;;;;22.48;7.32;;;;;;;;;;5033002;28;20022;-87
2021/10/23 01:26:01;;;;;;;16.85;7.38;;;;;;;;;;5033214;28;20013;-86
2021/10/23 01:28:26;;;;;;;20.33;7.72;;;;;;;;;;5033176;28;20021;-87
2021/10/23 01:30:54;;;;;;;15.77;7.40;;;;;;;;;;5033430;28;20022;-86
2021/10/23 01:33:19;;;;;;;16.42;7.88;;;;;;;;;;5032932;28;20492;-87
2021/10/23 01:35:44;;;;;;;16.05;7.60;;;;;;;;;;5066346;28;20021;-87
2021/10/23 01:38:09;;;;;;;14.50;7.75;;;;;;;;;;5066361;28;20021;-87
2021/10/23 01:40:35;;;;;;;14.55;7.40;;;;;;;;;;5066231;28;20587;-87
2021/10/23 01:43:00;;;;;;;17.55;8.40;;;;;;;;;;5066162;28;20112;-87
2021/10/23 01:45:26;;;;;;;15.77;8.13;;;;;;;;;;5032839;28;20480;-86
2021/10/23 01:47:51;;;;;;;18.35;8.98;;;;;;;;;;5032943;28;20035;-87
2021/10/23 01:50:21;;;;;;;15.90;7.93;;;;;;;;;;5032718;28;20067;-87
2021/10/23 01:52:46;;;;;;;18.65;8.60;;;;;;;;;;5032862;28;20017;-87
2021/10/23 01:55:12;;;;;;;14.82;8.18;;;;;;;;;;5066041;28;20032;-87
2021/10/23 01:57:39;;;;;;;17.77;7.78;;;;;;;;;;5038057;28;20021;-87
2021/10/23 02:00:04;;;;;;;15.95;7.40;;;;;;;;;;5066411;28;20132;-87
2021/10/23 02:02:29;;;;;;;17.92;8.13;;;;;;;;;;5032314;28;20105;-87
2021/10/23 02:04:55;;;;;;;18.83;9.07;;;;;;;;;;5032605;28;20071;-87
2021/10/23 02:07:20;;;;;;;21.38;8.77;;;;;;;;;;5018704;28;20466;-87
2021/10/23 02:09:45;;;;;;;17.33;8.30;;;;;;;;;;5032510;28;20024;-88
2021/10/23 02:12:10;;;;;;;17.05;8.20;;;;;;;;;;5032534;28;20036;-87
2021/10/23 02:14:35;;;;;;;20.42;10.05;;;;;;;;;;5051588;28;20477;-87
2021/10/23 02:17:01;;;;;;;25.00;9.85;;;;;;;;;;5032542;28;20056;-87
2021/10/23 02:19:26;;;;;;;19.65;9.30;;;;;;;;;;5032284;28;20037;-87
2021/10/23 02:21:51;;;;;;;19.40;9.82;;;;;;;;;;5032167;28;20040;-87
2021/10/23 02:24:16;;;;;;;17.08;10.05;;;;;;;;;;5065575;28;20029;-87
2021/10/23 02:26:41;;;;;;;20.27;10.20;;;;;;;;;;5032228;28;20485;-87
2021/10/23 02:29:07;;;;;;;24.70;11.00;;;;;;;;;;5032296;28;20055;-86
2021/10/23 02:31:32;;;;;;;23.98;9.90;;;;;;;;;;5031706;28;20022;-87
2021/10/23 02:33:57;;;;;;;20.00;11.05;;;;;;;;;;5052046;28;20022;-87
2021/10/23 02:36:22;;;;;;;22.08;11.18;;;;;;;;;;5033438;28;20076;-87
2021/10/23 02:38:49;;;;;;;24.08;11.68;;;;;;;;;;5065377;28;20021;-87
2021/10/23 02:41:14;;;;;;;22.20;11.13;;;;;;;;;;5032172;28;20400;-87
2021/10/23 02:43:39;;;;;;;20.92;10.35;;;;;;;;;;5029757;28;20021;-87
2021/10/23 02:46:05;;;;;;;24.20;11.50;;;;;;;;;;5023010;28;20025;-87
2021/10/23 02:48:30;;;;;;;21.75;10.55;;;;;;;;;;5036118;28;20034;-87
2021/10/23 02:50:55;;;;;;;23.10;11.30;;;;;;;;;;5036232;28;20025;-87
2021/10/23 02:53:20;;;;;;;20.77;11.10;;;;;;;;;;5036136;28;20077;-87
2021/10/23 02:55:45;;;;;;;26.50;11.05;;;;;;;;;;5035915;28;20381;-87
2021/10/23 02:58:11;;;;;;;23.25;11.57;;;;;;;;;;5036019;28;20021;-87
2021/10/23 03:00:37;;;;;;;18.27;9.80;;;;;;;;;;5035953;28;20021;-87
2021/10/23 03:03:02;;;;;;;28.45;10.23;;;;;;;;;;5035862;28;20021;-87
2021/10/23 03:05:27;;;;;;;19.52;10.63;;;;;;;;;;5037143;28;20013;-87
2021/10/23 03:07:52;;;;;;;25.77;11.65;;;;;;;;;;5069091;28;20377;-87
2021/10/23 03:10:18;;;;;;;23.88;11.30;;;;;;;;;;5035856;28;20021;-87
2021/10/23 03:12:43;;;;;;;23.10;11.18;;;;;;;;;;5035688;28;20067;-87
2021/10/23 03:15:09;;;;;;;27.77;11.95;;;;;;;;;;5036846;28;20439;-87
2021/10/23 03:17:34;;;;;;;24.63;12.40;;;;;;;;;;5035693;28;20032;-87
2021/10/23 03:19:59;;;;;;;25.30;11.60;;;;;;;;;;5028447;28;20049;-87
2021/10/23 03:22:25;;;;;;;23.70;11.57;;;;;;;;;;5045400;28;20088;-87
2021/10/23 03:24:50;;;;;;;22.85;10.98;;;;;;;;;;5035602;28;20080;-87
2021/10/23 03:27:18;;;;;;;19.73;9.80;;;;;;;;;;5035472;28;20109;-87
2021/10/23 03:29:45;;;;;;;22.58;9.60;;;;;;;;;;5036773;28;20072;-87
2021/10/23 03:32:11;;;;;;;23.92;11.18;;;;;;;;;;5036554;28;20041;-87
2021/10/23 03:34:36;;;;;;;23.75;11.32;;;;;;;;;;5035372;28;20025;-87
2021/10/23 03:37:02;;;;;;;20.58;11.07;;;;;;;;;;5036455;28;20018;-87
2021/10/23 03:39:27;;;;;;;22.67;9.85;;;;;;;;;;5036448;28;20028;-87
2021/10/23 03:41:52;;;;;;;22.30;9.57;;;;;;;;;;5036291;28;20459;-87
2021/10/23 03:44:17;;;;;;;20.98;10.23;;;;;;;;;;5068538;28;20026;-87
2021/10/23 03:46:42;;;;;;;22.48;10.68;;;;;;;;;;5041082;28;20037;-87
2021/10/23 03:49:11;;;;;;;23.98;11.02;;;;;;;;;;5068259;28;20416;-87
2021/10/23 03:51:36;;;;;;;23.80;10.20;;;;;;;;;;5068362;28;20045;-87
2021/10/23 03:54:01;;;;;;;21.60;11.10;;;;;;;;;;5043039;28;20051;-86
2021/10/23 03:56:27;;;;;;;20.38;10.63;;;;;;;;;;5033938;28;20021;-86
2021/10/23 03:58:52;;;;;;;19.75;10.20;;;;;;;;;;5034689;28;20017;-87
2021/10/23 04:01:17;;;;;;;15.13;8.18;;;;;;;;;;5027593;28;20025;-87
2021/10/23 04:03:42;;;;;;;19.42;8.48;;;;;;;;;;5028409;28;20025;-87
2021/10/23 04:06:08;;;;;;;19.95;8.50;;;;;;;;;;5068164;28;20116;-87
2021/10/23 04:08:33;;;;;;;19.42;9.07;;;;;;;;;;5068165;28;20025;-87
2021/10/23 04:10:58;;;;;;;16.98;8.45;;;;;;;;;;5034563;28;20473;-87
2021/10/23 04:13:23;;;;;;;16.90;7.95;;;;;;;;;;5034943;28;20037;-87
2021/10/23 04:15:49;;;;;;;16.75;8.30;;;;;;;;;;5036130;28;20021;-87
2021/10/23 04:18:14;;;;;;;13.70;8.15;;;;;;;;;;5034519;28;20052;-87
2021/10/23 04:20:40;;;;;;;17.95;9.38;;;;;;;;;;5067728;28;20112;-87
2021/10/23 04:23:05;;;;;;;20.95;8.38;;;;;;;;;;5033413;28;20112;-87
2021/10/23 04:25:30;;;;;;;14.23;8.10;;;;;;;;;;5034426;28;20010;-87
2021/10/23 04:27:55;;;;;;;15.15;8.25;;;;;;;;;;5034383;28;20009;-87
2021/10/23 04:30:20;;;;;;;18.38;7.55;;;;;;;;;;5021627;28;20041;-87
2021/10/23 04:32:46;;;;;;;15.48;8.25;;;;;;;;;;5034325;28;20032;-87
2021/10/23 04:35:11;;;;;;;18.80;8.63;;;;;;;;;;5067477;28;20056;-87
2021/10/23 04:37:38;;;;;;;17.88;8.45;;;;;;;;;;5034310;28;20112;-87
2021/10/23 04:40:03;;;;;;;15.90;8.52;;;;;;;;;;5033991;28;20366;-87
2021/10/23 04:42:29;;;;;;;16.08;8.00;;;;;;;;;;5067847;28;20101;-87
2021/10/23 04:44:54;;;;;;;16.02;8.63;;;;;;;;;;5067496;28;20029;-87
2021/10/23 04:47:19;;;;;;;15.50;7.90;;;;;;;;;;5033789;28;20028;-87
2021/10/23 04:49:44;;;;;;;25.98;7.40;;;;;;;;;;5033997;28;20484;-87
2021/10/23 04:52:09;;;;;;;14.27;6.88;;;;;;;;;;5033655;28;20033;-87
2021/10/23 04:54:35;;;;;;;21.92;9.07;;;;;;;;;;5037653;28;20118;-87
2021/10/23 04:57:00;;;;;;;24.55;9.45;;;;;;;;;;5033682;28;20021;-87
2021/10/23 04:59:26;;;;;;;16.55;8.93;;;;;;;;;;5033779;28;20017;-87
2021/10/23 05:01:51;;;;;;;18.92;9.60;;;;;;;;;;5033593;28;20025;-87
2021/10/23 05:04:16;;;;;;;18.88;9.68;;;;;;;;;;5033615;28;20045;-87
2021/10/23 05:06:41;;;;;;;25.08;10.45;;;;;;;;;;5067011;28;20397;-87
2021/10/23 05:09:06;;;;;;;18.02;9.43;;;;;;;;;;5033133;28;20021;-87
2021/10/23 05:11:32;;;;;;;24.90;9.80;;;;;;;;;;5066860;28;20033;-87
2021/10/23 05:13:57;;;;;;;24.42;10.23;;;;;;;;;;5033525;28;20079;-87
2021/10/23 05:16:22;;;;;;;24.15;10.85;;;;;;;;;;5033390;28;20014;-87
2021/10/23 05:18:49;;;;;;;23.70;10.00;;;;;;;;;;5033349;28;20384;-87
2021/10/23 05:21:17;;;;;;;17.33;9.00;;;;;;;;;;5066409;28;20499;-87
2021/10/23 05:23:43;;;;;;;18.60;8.57;;;;;;;;;;5022403;28;20020;-87
2021/10/23 05:26:08;;;;;;;19.88;9.77;;;;;;;;;;5066538;28;20025;-87
2021/10/23 05:28:33;;;;;;;19.27;9.85;;;;;;;;;;5033032;28;20111;-87
2021/10/23 05:30:59;;;;;;;23.08;10.30;;;;;;;;;;5066482;28;20024;-87
2021/10/23 05:33:24;;;;;;;20.83;9.57;;;;;;;;;;5033105;28;20033;-87
2021/10/23 05:35:49;;;;;;;25.38;9.18;;;;;;;;;;5033101;28;20013;-87
2021/10/23 05:38:15;;;;;;;19.35;9.55;;;;;;;;;;5066452;28;20535;-87
2021/10/23 05:40:40;;;;;;;18.02;9.18;;;;;;;;;;5032926;28;20040;-87
2021/10/23 05:43:05;;;;;;;21.55;10.52;;;;;;;;;;5032934;28;20112;-87
2021/10/23 05:45:30;;;;;;;17.75;8.60;;;;;;;;;;5032684;28;20350;-87
2021/10/23 05:47:55;;;;;;;16.02;8.18;;;;;;;;;;5066193;28;20014;-87
2021/10/23 05:50:21;;;;;;;15.00;8.07;;;;;;;;;;5033607;28;20022;-86
2021/10/23 05:52:46;;;;;;;19.30;7.93;;;;;;;;;;5045466;28;20017;-87
2021/10/23 05:55:11;;;;;;;16.27;8.38;;;;;;;;;;5066140;28;20389;-87
2021/10/23 05:57:36;;;;;;;17.17;8.88;;;;;;;;;;5032647;28;20428;-87
2021/10/23 06:00:06;;;;;;;67.20;25.50;;;;;;;;;;5033936;28;20473;-87
2021/10/23 06:02:32;;;;;;;42.13;21.10;;;;;;;;;;5032503;28;20013;-87
2021/10/23 06:04:58;;;;;;;51.05;20.25;;;;;;;;;;5034317;28;20377;-87
2021/10/23 06:07:25;;;;;;;27.20;12.35;;;;;;;;;;5032380;28;20025;-87
2021/10/23 06:09:50;;;;;;;21.47;11.20;;;;;;;;;;5033738;28;20029;-87
2021/10/23 06:12:15;;;;;;;22.80;10.80;;;;;;;;;;5032536;28;20097;-87
2021/10/23 06:14:41;;;;;;;27.08;11.05;;;;;;;;;;5032439;28;20018;-87
2021/10/23 06:17:06;;;;;;;20.50;10.13;;;;;;;;;;5032490;28;20031;-87
2021/10/23 06:19:32;;;;;;;18.67;9.52;;;;;;;;;;5032911;28;20018;-87
2021/10/23 06:21:57;;;;;;;21.40;10.02;;;;;;;;;;5032224;28;20036;-87
2021/10/23 06:24:23;;;;;;;20.85;10.10;;;;;;;;;;5032444;28;20021;-87
2021/10/23 06:26:48;;;;;;;20.27;10.07;;;;;;;;;;5032228;28;20022;-87
2021/10/23 06:29:13;;;;;;;15.82;8.88;;;;;;;;;;5032268;28;20029;-87
2021/10/23 06:31:38;;;;;;;21.58;9.27;;;;;;;;;;5046079;28;20473;-87
2021/10/23 06:34:03;;;;;;;20.88;10.10;;;;;;;;;;5032224;28;20026;-87
2021/10/23 06:36:29;;;;;;;19.02;9.55;;;;;;;;;;5033478;28;20465;-87
2021/10/23 06:38:54;;;;;;;19.03;9.63;;;;;;;;;;5032209;28;20545;-87
2021/10/23 06:41:19;;;;;;;17.30;8.40;;;;;;;;;;5035585;28;20018;-87
2021/10/23 06:43:44;;;;;;;15.30;7.03;;;;;;;;;;5065239;28;20124;-87
2021/10/23 06:46:09;;;;;;;14.03;7.43;;;;;;;;;;5065542;28;20021;-87
2021/10/23 06:48:35;;;;;;;14.83;8.13;;;;;;;;;;5032106;28;20079;-87
2021/10/23 06:51:00;;;;;;;17.23;8.90;;;;;;;;;;5032054;28;20018;-87
2021/10/23 06:53:25;;;;;;;20.60;8.83;;;;;;;;;;5032017;28;20032;-87
2021/10/23 06:55:50;;;;;;;25.00;8.97;;;;;;;;;;5031984;28;20022;-87
2021/10/23 06:58:15;;;;;;;21.93;9.87;;;;;;;;;;5048716;28;20026;-87
2021/10/23 07:00:41;;;;;;;26.37;11.47;;;;;;;;;;5038829;28;20435;-87
2021/10/23 07:03:06;;;;;;;22.80;9.53;;;;;;;;;;5031982;28;20437;-87
2021/10/23 07:05:31;;;;;;;17.53;8.80;;;;;;;;;;5033113;28;20476;-87
2021/10/23 07:07:57;;;;;;;26.63;10.07;;;;;;;;;;5034377;28;20045;-87
2021/10/23 07:10:22;;;;;;;23.37;10.30;;;;;;;;;;5056281;28;20017;-87
2021/10/23 07:12:47;;;;;;;25.13;10.40;;;;;;;;;;5031728;28;20020;-87
2021/10/23 07:15:13;;;;;;;20.02;8.07;;;;;;;;;;5031939;28;20021;-87
2021/10/23 07:17:38;;;;;;;20.70;8.07;;;;;;;;;;5031790;28;20095;-87
2021/10/23 07:20:04;;;;;;;15.93;8.50;;;;;;;;;;5037073;28;20461;-87
2021/10/23 07:22:29;;;;;;;17.10;9.20;;;;;;;;;;5031647;28;20025;-87
2021/10/23 07:24:55;;;;;;;20.67;10.63;;;;;;;;;;5062197;28;20028;-87
2021/10/23 07:27:20;;;;;;;26.03;11.67;;;;;;;;;;5062991;28;20072;-87
2021/10/23 07:29:45;;;;;;;22.47;10.17;;;;;;;;;;5037874;28;20134;-87
2021/10/23 07:32:10;;;;;;;25.73;11.30;;;;;;;;;;5034040;28;20465;-87
2021/10/23 07:34:36;;;;;;;21.15;11.38;;;;;;;;;;5035496;28;20025;-88
2021/10/23 07:37:02;;;;;;;23.70;11.45;;;;;;;;;;5019100;28;20049;-87
2021/10/23 07:39:28;;;;;;;27.38;11.65;;;;;;;;;;5036458;28;20056;-87
2021/10/23 07:41:53;;;;;;;24.80;11.90;;;;;;;;;;5035212;28;20028;-87
2021/10/23 07:44:18;;;;;;;29.92;13.20;;;;;;;;;;5036510;28;20035;-87
2021/10/23 07:46:45;;;;;;;23.63;11.65;;;;;;;;;;5035343;28;20036;-87
2021/10/23 07:49:10;;;;;;;25.50;12.43;;;;;;;;;;5035192;28;20013;-87
2021/10/23 07:51:36;;;;;;;28.67;12.97;;;;;;;;;;5035183;28;20491;-87
2021/10/23 07:54:03;;;;;;;31.33;12.43;;;;;;;;;;5035003;28;20025;-87
2021/10/23 07:56:29;;;;;;;31.48;13.80;;;;;;;;;;5035154;28;20099;-87
2021/10/23 07:58:54;;;;;;;28.05;13.50;;;;;;;;;;5035007;28;20029;-88
2021/10/23 08:01:19;;;;;;;27.48;13.38;;;;;;;;;;5034892;28;20033;-87
2021/10/23 08:03:44;;;;;;;26.73;13.73;;;;;;;;;;5036048;28;20072;-87
2021/10/23 08:06:10;;;;;;;27.65;13.52;;;;;;;;;;5034708;28;20028;-87
2021/10/23 08:08:35;;;;;;;28.75;15.05;;;;;;;;;;5034796;28;20014;-87
2021/10/23 08:11:01;;;;;;;27.73;13.13;;;;;;;;;;5034668;28;20045;-87
2021/10/23 08:13:27;;;;;;;29.58;13.18;;;;;;;;;;5025266;28;20473;-87
2021/10/23 08:15:52;;;;;;;29.98;13.48;;;;;;;;;;5030229;28;20024;-87
2021/10/23 08:18:17;;;;;;;28.35;14.15;;;;;;;;;;5034689;28;20100;-88
2021/10/23 08:20:42;;;;;;;28.15;13.23;;;;;;;;;;5034359;28;20087;-87
2021/10/23 08:23:08;;;;;;;27.98;13.55;;;;;;;;;;5034249;28;20052;-87
2021/10/23 08:25:36;;;;;;;27.35;12.70;;;;;;;;;;5034545;28;20026;-87
2021/10/23 08:28:02;;;;;;;29.33;14.73;;;;;;;;;;5034427;28;20022;-87
2021/10/23 08:30:27;;;;;;;29.25;13.45;;;;;;;;;;5035971;28;20014;-87
2021/10/23 08:32:52;;;;;;;29.95;14.13;;;;;;;;;;5042804;28;20120;-87
2021/10/23 08:35:18;;;;;;;32.17;14.00;;;;;;;;;;5042403;28;20030;-87
2021/10/23 08:37:43;;;;;;;34.15;15.20;;;;;;;;;;5038351;28;20025;-87
2021/10/23 08:40:09;;;;;;;31.20;14.88;;;;;;;;;;5055209;28;20018;-87
2021/10/23 08:42:34;;;;;;;38.13;14.55;;;;;;;;;;5033371;28;20036;-87
2021/10/23 08:45:00;;;;;;;35.05;14.55;;;;;;;;;;5034101;28;20384;-87
2021/10/23 08:47:27;;;;;;;27.65;14.20;;;;;;;;;;5034696;28;20492;-88
2021/10/23 08:49:54;;;;;;;27.77;12.25;;;;;;;;;;5059202;28;20022;-88
2021/10/23 08:52:19;;;;;;;20.48;9.57;;;;;;;;;;5034081;28;20017;-88
2021/10/23 08:54:45;;;;;;;20.77;8.63;;;;;;;;;;5034210;28;20026;-88
2021/10/23 08:57:13;;;;;;;28.15;12.75;;;;;;;;;;5067289;28;20500;-88
2021/10/23 08:59:40;;;;;;;26.77;12.50;;;;;;;;;;5033970;28;20112;-88
2021/10/23 09:02:06;;;;;;;24.55;12.93;;;;;;;;;;5033937;28;20028;-88
2021/10/23 09:04:32;;;;;;;26.13;12.77;;;;;;;;;;5033899;28;20014;-88
2021/10/23 09:07:10;;;;;;;27.30;12.13;;;;;;;;;;5040416;28;20357;-88
2021/10/23 09:09:49;;;;;;;27.20;12.88;;;;;;;;;;5033805;28;20469;-88
2021/10/23 09:12:25;;;;;;;30.40;12.75;;;;;;;;;;5033851;28;20032;-88
2021/10/23 09:14:57;;;;;;;19.58;9.23;;;;;;;;;;5022153;28;20025;-88
2021/10/23 09:17:22;;;;;;;;;;;;;;;;;;5040160;28;20081;-88
2021/10/23 09:19:48;;;;;;;18.92;8.88;;;;;;;;;;5066691;28;19909;-88
2021/10/23 09:22:24;;;;;;;18.77;8.57;;;;;;;;;;5033390;28;20255;-88
2021/10/23 09:24:50;;;;;;;27.05;10.18;;;;;;;;;;5061979;28;20021;-88
2021/10/23 09:27:16;;;;;;;24.55;11.52;;;;;;;;;;5033386;28;20022;-88
2021/10/23 09:29:41;;;;;;;26.92;12.38;;;;;;;;;;5033513;28;20035;-88
2021/10/23 09:32:10;;;;;;;26.05;9.73;;;;;;;;;;5037602;28;20013;-88
2021/10/23 09:34:36;;;;;;;23.00;8.35;;;;;;;;;;5041194;28;20021;-91
2021/10/23 09:37:03;;;;;;;19.70;9.05;;;;;;;;;;5033225;28;20021;-91
2021/10/23 09:39:29;;;;;;;20.55;8.30;;;;;;;;;;5033502;28;20384;-90
2021/10/23 09:42:05;;;;;;;18.88;8.45;;;;;;;;;;5033282;28;20017;-91
2021/10/23 09:44:30;;;;;;;16.40;7.97;;;;;;;;;;5034512;28;20108;-91
2021/10/23 09:46:55;;;;;;;23.77;9.65;;;;;;;;;;5033966;28;20048;-90
2021/10/23 09:49:22;;;;;;;17.88;8.10;;;;;;;;;;5056666;28;20025;-91
2021/10/23 09:52:00;;;;;;;24.25;8.40;;;;;;;;;;5038467;28;20108;-91
2021/10/23 09:54:25;;;;;;;16.60;8.00;;;;;;;;;;5036674;28;20025;-91
2021/10/23 09:56:51;;;;;;;22.73;9.13;;;;;;;;;;5034001;28;20113;-91
2021/10/23 09:59:26;;;;;;;18.13;8.15;;;;;;;;;;5037795;28;20031;-91
2021/10/23 10:01:53;;;;;;;19.40;8.45;;;;;;;;;;5038915;28;20021;-91
2021/10/23 10:04:18;;;;;;;23.00;8.35;;;;;;;;;;5058446;28;20044;-91
2021/10/23 10:06:45;;;;;;;25.88;9.27;;;;;;;;;;5026006;28;20013;-90
2021/10/23 10:09:13;;;;;;;16.88;7.93;;;;;;;;;;5031580;28;20460;-91
2021/10/23 10:11:39;;;;;;;24.33;8.82;;;;;;;;;;5022868;28;20017;-91
2021/10/23 10:14:08;;;;;;;20.00;9.80;;;;;;;;;;5032661;28;20033;-91
2021/10/23 10:16:34;;;;;;;17.48;8.10;;;;;;;;;;5032629;28;20022;-91
2021/10/23 10:18:59;;;;;;;20.90;9.85;;;;;;;;;;5065845;28;20380;-91
2021/10/23 10:21:25;;;;;;;20.23;8.88;;;;;;;;;;5043872;28;20505;-90
2021/10/23 10:23:53;;;;;;;19.85;9.90;;;;;;;;;;5033459;28;20018;-91
2021/10/23 10:26:24;;;;;;;24.23;12.02;;;;;;;;;;5028542;28;20025;-90
2021/10/23 10:29:05;;;;;;;18.95;9.40;;;;;;;;;;5031069;28;20020;-90
2021/10/23 10:31:47;;;;;;;22.52;10.13;;;;;;;;;;5035880;28;20512;-91
2021/10/23 10:34:33;;;;;;;18.13;7.93;;;;;;;;;;5031812;28;20013;-90
2021/10/23 10:42:51;;;;;;;19.00;7.70;;;;;;;;;;5025155;28;20042;-90
2021/10/23 10:45:24;;;;;;;21.90;7.35;;;;;;;;;;5051377;28;20022;-91
2021/10/23 10:48:04;;;;;;;20.42;8.77;;;;;;;;;;5032821;28;20071;-91
2021/10/23 10:50:56;;;;;;;18.17;7.68;;;;;;;;;;5032352;28;20527;-90
2021/10/23 10:53:25;;;;;;;24.23;9.13;;;;;;;;;;5018056;28;20044;-90
2021/10/23 10:55:54;;;;;;;17.77;7.28;;;;;;;;;;5064038;28;20115;-90
2021/10/23 10:58:20;;;;;;;17.60;8.52;;;;;;;;;;5032641;28;20053;-91
2021/10/23 11:00:45;;;;;;;21.27;8.82;;;;;;;;;;5033709;28;20029;-91
2021/10/23 11:03:30;;;;;;;20.63;8.60;;;;;;;;;;5034118;28;20099;-90
2021/10/23 11:05:55;;;;;;;19.23;9.77;;;;;;;;;;5067356;28;20022;-91
2021/10/23 11:08:20;;;;;;;24.65;8.88;;;;;;;;;;5036170;28;20491;-91
2021/10/23 11:10:49;;;;;;;18.33;8.13;;;;;;;;;;5055215;28;20022;-91
2021/10/23 11:13:28;;;;;;;20.70;7.65;;;;;;;;;;5078006;28;20509;-90
2021/10/23 11:15:53;;;;;;;20.13;7.45;;;;;;;;;;5031427;28;20021;-91
2021/10/23 11:18:19;;;;;;;27.70;8.60;;;;;;;;;;5042537;28;20017;-91
2021/10/23 11:20:45;;;;;;;21.25;7.82;;;;;;;;;;5043104;28;20033;-90
2021/10/23 11:23:12;;;;;;;24.27;8.30;;;;;;;;;;5068908;28;20079;-91
2021/10/23 11:25:38;;;;;;;16.67;6.22;;;;;;;;;;5036398;28;20022;-90
2021/10/23 11:28:09;;;;;;;15.05;6.97;;;;;;;;;;5069112;28;20021;-90
2021/10/23 11:30:40;;;;;;;21.40;7.77;;;;;;;;;;5032444;28;20662;-90
2021/10/23 11:33:08;;;;;;;17.02;8.13;;;;;;;;;;5035320;28;20270;-90
2021/10/23 11:35:35;;;;;;;19.52;8.38;;;;;;;;;;5035177;28;20033;-90
2021/10/23 11:38:08;;;;;;;16.67;6.35;;;;;;;;;;5072987;28;20402;-88
2021/10/23 11:40:34;;;;;;;18.17;8.48;;;;;;;;;;5045493;28;20025;-87
2021/10/23 11:42:59;;;;;;;15.95;6.45;;;;;;;;;;5059005;28;20026;-88
2021/10/23 11:45:26;;;;;;;19.25;8.10;;;;;;;;;;5049329;28;20028;-88
2021/10/23 11:47:55;;;;;;;12.15;4.35;;;;;;;;;;5034794;28;20096;-88
2021/10/23 11:50:22;;;;;;;26.63;8.50;;;;;;;;;;5051206;28;20025;-88
2021/10/23 11:52:48;;;;;;;9.55;4.57;;;;;;;;;;5034742;28;20037;-88
2021/10/23 11:55:23;;;;;;;10.38;5.45;;;;;;;;;;5034796;28;20435;-88
2021/10/23 11:57:53;;;;;;;16.65;8.50;;;;;;;;;;5034629;28;20124;-88
2021/10/23 12:00:18;;;;;;;21.88;8.77;;;;;;;;;;5035947;28;20025;-88
2021/10/23 12:02:47;;;;;;;17.50;7.82;;;;;;;;;;5034504;28;20107;-87
2021/10/23 12:05:18;;;;;;;11.13;5.05;;;;;;;;;;5063988;28;20025;-88
2021/10/23 12:07:44;;;;;;;21.80;7.13;;;;;;;;;;5034092;28;20018;-88
2021/10/23 12:10:09;;;;;;;18.00;5.78;;;;;;;;;;5034509;28;20483;-88
2021/10/23 12:12:34;;;;;;;13.98;6.75;;;;;;;;;;5067630;28;20033;-88
2021/10/23 12:15:13;;;;;;;10.48;4.53;;;;;;;;;;5034165;28;20374;-88
2021/10/23 12:17:39;;;;;;;11.98;4.65;;;;;;;;;;5032884;28;20354;-88
2021/10/23 12:20:13;;;;;;;10.25;4.50;;;;;;;;;;5034022;28;20033;-88
2021/10/23 12:22:38;;;;;;;13.63;5.43;;;;;;;;;;5034116;28;20029;-88
2021/10/23 12:25:08;;;;;;;14.05;4.72;;;;;;;;;;5067551;28;20112;-88
2021/10/23 12:27:33;;;;;;;15.30;6.47;;;;;;;;;;5033591;28;20099;-88
2021/10/23 12:29:59;;;;;;;19.52;6.25;;;;;;;;;;5066941;28;20029;-88
2021/10/23 12:32:27;;;;;;;11.45;4.68;;;;;;;;;;5034121;28;20033;-88
2021/10/23 12:34:52;;;;;;;9.73;3.78;;;;;;;;;;5035369;28;20405;-88
2021/10/23 12:37:27;;;;;;;12.90;5.10;;;;;;;;;;5035042;28;20017;-88
2021/10/23 12:40:05;;;;;;;17.02;4.95;;;;;;;;;;5035309;28;20017;-88
2021/10/23 12:42:30;;;;;;;14.00;4.60;;;;;;;;;;5034248;28;20049;-88
2021/10/23 12:44:55;;;;;;;11.88;4.35;;;;;;;;;;5026948;28;20469;-88
2021/10/23 12:47:21;;;;;;;12.52;5.03;;;;;;;;;;5033645;28;20055;-88
2021/10/23 12:49:46;;;;;;;12.85;4.00;;;;;;;;;;5033868;28;20049;-88
2021/10/23 12:52:11;;;;;;;12.05;4.47;;;;;;;;;;5066780;28;20491;-88
2021/10/23 12:54:37;;;;;;;9.80;4.60;;;;;;;;;;5058543;28;20029;-87
2021/10/23 12:57:02;;;;;;;12.38;4.45;;;;;;;;;;5029314;28;20100;-88
2021/10/23 12:59:27;;;;;;;7.78;4.68;;;;;;;;;;5033378;28;20104;-88
2021/10/23 13:01:52;;;;;;;7.75;3.30;;;;;;;;;;5021589;28;20029;-88
2021/10/23 13:04:17;;;;;;;7.50;2.80;;;;;;;;;;5064856;28;20018;-88
2021/10/23 13:06:45;;;;;;;9.32;3.10;;;;;;;;;;5033534;28;20014;-88
2021/10/23 13:09:10;;;;;;;8.18;3.78;;;;;;;;;;5034505;28;20013;-88
2021/10/23 13:11:38;;;;;;;7.43;3.00;;;;;;;;;;5066809;28;20587;-88
2021/10/23 13:14:03;;;;;;;9.68;3.42;;;;;;;;;;5034380;28;20034;-88
2021/10/23 13:16:28;;;;;;;10.98;2.80;;;;;;;;;;5032927;28;20465;-88
2021/10/23 13:18:53;;;;;;;12.40;3.78;;;;;;;;;;5066461;28;20030;-88
2021/10/23 13:21:20;;;;;;;8.82;2.47;;;;;;;;;;5033005;28;20031;-88
2021/10/23 13:23:45;;;;;;;6.63;2.47;;;;;;;;;;5032698;28;20032;-88
2021/10/23 13:26:11;;;;;;;8.52;2.63;;;;;;;;;;5034166;28;20025;-88
2021/10/23 13:28:36;;;;;;;9.65;3.05;;;;;;;;;;5032377;28;20067;-88
2021/10/23 13:31:01;;;;;;;8.63;2.92;;;;;;;;;;5033030;28;20470;-88
2021/10/23 13:33:26;;;;;;;5.70;2.60;;;;;;;;;;5066096;28;20025;-88
2021/10/23 13:35:52;;;;;;;8.25;2.75;;;;;;;;;;5032739;28;20021;-88
2021/10/23 13:38:17;;;;;;;5.38;2.63;;;;;;;;;;5020042;28;20029;-87
2021/10/23 13:40:42;;;;;;;7.43;2.92;;;;;;;;;;5033925;28;20014;-88
2021/10/23 13:43:07;;;;;;;5.15;1.92;;;;;;;;;;5034042;28;20017;-88
2021/10/23 13:45:33;;;;;;;6.00;2.20;;;;;;;;;;5032584;28;20017;-88
2021/10/23 13:47:58;;;;;;;7.90;2.65;;;;;;;;;;5032306;28;20100;-88
2021/10/23 13:50:24;;;;;;;7.18;2.40;;;;;;;;;;5033740;28;20176;-88
2021/10/23 13:52:49;;;;;;;4.70;1.80;;;;;;;;;;5033913;28;20018;-89
2021/10/23 13:55:14;;;;;;;6.00;2.13;;;;;;;;;;5062171;28;20083;-88
2021/10/23 13:57:39;;;;;;;5.93;2.45;;;;;;;;;;5032272;28;20043;-88
2021/10/23 14:00:05;;;;;;;11.35;2.85;;;;;;;;;;5033655;28;20495;-88
2021/10/23 14:02:31;;;;;;;5.53;2.42;;;;;;;;;;5033592;28;20441;-88
2021/10/23 14:04:56;;;;;;;8.68;2.35;;;;;;;;;;5032554;28;20072;-88
2021/10/23 14:07:21;;;;;;;7.57;2.40;;;;;;;;;;5030855;28;20014;-88
2021/10/23 14:09:47;;;;;;;9.55;2.83;;;;;;;;;;5052942;28;20017;-88
2021/10/23 14:12:12;;;;;;;7.07;1.55;;;;;;;;;;5032387;28;20426;-88
2021/10/23 14:14:37;;;;;;;10.45;2.75;;;;;;;;;;5065502;28;20461;-88
2021/10/23 14:17:02;;;;;;;5.38;1.98;;;;;;;;;;5032240;28;20025;-88
2021/10/23 14:19:27;;;;;;;6.20;1.98;;;;;;;;;;5032015;28;20014;-88
2021/10/23 14:21:53;;;;;;;8.93;3.00;;;;;;;;;;5031768;28;20021;-88
2021/10/23 14:24:19;;;;;;;6.43;2.35;;;;;;;;;;5032109;28;20076;-88
2021/10/23 14:26:48;;;;;;;8.70;2.53;;;;;;;;;;5032036;28;20017;-88
2021/10/23 14:29:13;;;;;;;8.13;2.85;;;;;;;;;;5032042;28;20045;-88